TFM - Tactical Decision Aid (Experimental) INFO Settings
ID: Runway Winds: CIG/VIS Threshold: METAR Board: Map:

KATL - Atlanta-Hartsfield Jackson Intl

Updated at: 2232 UTC 25 Sep 2016
Latest TAF at: 2149 UTC 25 Sep 2016

TAF Board

Time2152Z25/23Z26/00Z26/01Z26/02Z26/03Z26/04Z26/05Z26/06Z26/07Z26/08Z26/09Z26/10Z26/11Z
TypeOBSPRVLPRVLPRVLPRVLPRVLPRVLPRVLPRVLPRVLPRVLPRVLPRVLPRVL
VIS10>6>6>6>6>6>6>6>6>6>6>6>6>6
CIG----------------------------
CoverSCTSCTSCTSCTSCTSCTSCTSCTSCTSCTSCTSCTFEWFEW
FltCatVFRVFRVFRVFRVFRVFRVFRVFRVFRVFRVFRVFRVFRVFR
WX----------------------------
WDir160120120120130130130130130130130130120120
WSpd76665555555544
WGst----------------------------
TAF
KATL 252149Z 2522/2624 12006KT P6SM SCT070
  FM260200 13005KT P6SM SCT250
  FM261000 12004KT P6SM FEW015
  FM261400 14006KT P6SM FEW035
  FM261700 15006KT P6SM VCSH SCT045
  PROB30 2620/2624 5SM -TSRA OVC035CB


METAR
KATL 252152Z 16007KT 10SM FEW070 SCT200 SCT250 32/16 A3002 RMK AO2 SLP154 TCU DSNT E T03220161 $

TAF/METAR Board Legend

Potential Impact
  None Marginal Slight Moderate High
Visibility (sm) >5 3≤X≤5 1≤X<3 0.5≤X<1 <0.5
Ceiling (100 ft) >30 10≤X≤30 4≤X<10 2≤X<4 <2
Wind Speed (kt) <10 10≤X<20 20≤X<30 ≥30
Wind Gust (kt) <15 15≤X<25 25≤X<35 ≥35
Weather No Wx Reported VCTS -TS,-FZRA TS,FZRA +TS,+FZRA